Time;durP1;ratioP1;P1;durP2;ratioP2;P2;SDS_P1;SDS_P2;PMS_P1;PMS_P2;Temp;Humidity;BMP_temperature;BMP_pressure;BME280_temperature;BME280_humidity;BME280_pressure;Samples;Min_cycle;Max_cycle;Signal;HPM_P1;HPM_P2
2022/07/30 21:39:43;;;;;;;18.25;10.43;;;23.80;60.20;;;;;;5095907;27;20121;-73
2022/07/30 21:42:10;;;;;;;15.77;9.38;;;23.90;62.60;;;;;;5052330;28;20040;-75
2022/07/30 21:44:37;;;;;;;13.75;9.50;;;23.90;63.60;;;;;;5051835;28;20025;-72
2022/07/30 21:47:03;;;;;;;15.63;9.25;;;23.70;62.70;;;;;;5052598;28;20037;-73
2022/07/30 21:49:29;;;;;;;13.13;8.23;;;23.30;63.80;;;;;;5049973;28;20128;-73
2022/07/30 21:51:55;;;;;;;13.75;9.25;;;22.80;64.50;;;;;;5050947;28;20632;-72
2022/07/30 21:54:21;;;;;;;11.25;8.05;;;22.50;66.20;;;;;;5049520;28;20029;-73
2022/07/30 21:56:47;;;;;;;11.27;8.07;;;22.20;67.30;;;;;;5051803;28;20116;-72
2022/07/30 21:59:13;;;;;;;13.23;7.25;;;22.00;68.40;;;;;;5053820;28;20033;-72
2022/07/30 22:01:39;;;;;;;13.68;7.13;;;21.80;68.40;;;;;;5052180;28;20034;-73
2022/07/30 22:04:05;;;;;;;9.20;7.15;;;21.70;68.50;;;;;;5050822;28;20040;-72
2022/07/30 22:06:36;;;;;;;11.27;6.30;;;21.60;69.90;;;;;;5050874;28;20034;-72
2022/07/30 22:09:04;;;;;;;13.50;5.78;;;21.50;70.30;;;;;;5049472;28;20507;-73
2022/07/30 22:11:30;;;;;;;11.88;6.00;;;21.40;70.60;;;;;;5052210;28;20048;-78
2022/07/30 22:13:56;;;;;;;11.13;6.28;;;21.40;70.80;;;;;;5054077;28;20111;-76
2022/07/30 22:16:22;;;;;;;10.50;6.20;;;21.40;70.70;;;;;;5052642;28;20116;-74
2022/07/30 22:18:47;;;;;;;9.95;5.22;;;21.60;70.70;;;;;;5051547;28;20544;-75
2022/07/30 22:21:13;;;;;;;17.42;5.38;;;21.50;71.20;;;;;;5051951;28;20037;-73
2022/07/30 22:23:40;;;;;;;11.07;5.00;;;21.40;71.30;;;;;;5050761;28;20119;-83
2022/07/30 22:26:06;;;;;;;10.65;4.93;;;21.40;71.30;;;;;;5050726;28;20112;-75
2022/07/30 22:28:32;;;;;;;8.05;4.68;;;21.20;71.10;;;;;;5049557;28;20119;-75
2022/07/30 22:30:58;;;;;;;34.40;6.28;;;21.10;71.70;;;;;;5051215;28;20507;-77
2022/07/30 22:34:58;;;;;;;9.40;4.40;;;21.10;71.90;;;;;;5113500;27;20108;-76
2022/07/30 22:37:27;;;;;;;12.05;4.68;;;20.90;72.90;;;;;;5069055;28;20525;-77
2022/07/30 22:39:53;;;;;;;11.00;5.00;;;20.90;73.20;;;;;;5057237;28;20494;-74
2022/07/30 22:42:20;;;;;;;8.95;4.78;;;20.70;73.10;;;;;;5056331;28;20115;-77
2022/07/30 22:44:47;;;;;;;10.95;4.32;;;20.50;73.40;;;;;;5057433;28;20415;-77
2022/07/30 22:47:14;;;;;;;6.18;4.28;;;20.50;73.90;;;;;;5058508;28;20451;-77
2022/07/30 22:49:40;;;;;;;12.15;4.55;;;20.40;74.30;;;;;;5057624;28;20040;-77
2022/07/30 22:52:06;;;;;;;7.35;4.30;;;20.30;74.80;;;;;;5058331;28;20102;-77
2022/07/30 22:54:32;;;;;;;8.93;4.68;;;20.20;74.90;;;;;;5054751;28;20518;-77
2022/07/30 22:56:58;;;;;;;11.40;4.43;;;20.20;75.00;;;;;;5056771;28;20037;-77
2022/07/30 22:59:24;;;;;;;7.28;3.95;;;20.20;75.10;;;;;;5059585;28;20025;-76
2022/07/30 23:01:50;;;;;;;9.10;4.10;;;20.10;75.20;;;;;;5057308;28;20095;-75
2022/07/30 23:04:17;;;;;;;8.80;4.60;;;20.00;75.20;;;;;;5056451;28;20037;-74
2022/07/30 23:06:43;;;;;;;8.68;4.68;;;20.10;75.10;;;;;;5057300;28;20033;-76
2022/07/30 23:09:09;;;;;;;9.98;4.20;;;20.10;75.30;;;;;;5055780;28;20083;-76
2022/07/30 23:11:37;;;;;;;6.00;3.95;;;20.10;75.60;;;;;;5055350;28;20538;-75
2022/07/30 23:14:07;;;;;;;9.77;4.50;;;20.00;76.00;;;;;;5056436;28;20040;-73
2022/07/30 23:16:34;;;;;;;7.88;4.30;;;20.00;76.10;;;;;;5057500;28;20033;-74
2022/07/30 23:19:00;;;;;;;11.43;4.40;;;20.00;75.90;;;;;;5056387;28;20045;-73
2022/07/30 23:21:26;;;;;;;13.20;4.25;;;20.00;76.00;;;;;;5056688;28;20032;-73
2022/07/30 23:23:53;;;;;;;7.43;4.00;;;20.00;75.90;;;;;;5057535;28;20043;-73
2022/07/30 23:26:19;;;;;;;8.05;4.47;;;20.10;75.80;;;;;;5056481;28;20114;-74
2022/07/30 23:28:48;;;;;;;12.05;4.28;;;20.10;75.50;;;;;;5055383;28;20032;-74
2022/07/30 23:31:14;;;;;;;8.35;4.30;;;20.00;75.60;;;;;;5056720;28;20039;-74
2022/07/30 23:33:40;;;;;;;9.13;4.72;;;20.00;75.90;;;;;;5054821;28;20052;-75
2022/07/30 23:36:08;;;;;;;5.45;3.58;;;20.00;76.00;;;;;;5057134;28;20521;-73
2022/07/30 23:38:35;;;;;;;8.00;4.25;;;19.90;75.90;;;;;;5058376;28;20063;-75
2022/07/30 23:41:05;;;;;;;4.72;3.90;;;19.90;75.90;;;;;;5054639;28;20106;-74
2022/07/30 23:43:33;;;;;;;9.38;4.30;;;19.90;75.70;;;;;;5055686;28;20893;-83
2022/07/30 23:45:59;;;;;;;7.45;4.75;;;19.80;75.70;;;;;;5047435;28;20411;-81
2022/07/30 23:48:25;;;;;;;7.38;4.50;;;19.60;76.10;;;;;;5043256;28;20037;-82
2022/07/30 23:50:51;;;;;;;7.40;4.72;;;19.40;76.60;;;;;;5039306;28;20041;-82
2022/07/30 23:53:17;;;;;;;8.38;4.72;;;19.30;76.80;;;;;;5043253;28;20373;-82
2022/07/30 23:55:48;;;;;;;6.95;4.60;;;19.20;77.20;;;;;;5041797;28;20025;-81
2022/07/30 23:58:15;;;;;;;9.15;4.47;;;19.00;77.80;;;;;;5044046;28;20030;-80
